createdAt,value
2022-07-30T00:00:28.203Z,54.54
2022-07-30T00:02:56.398Z,54.41
2022-07-30T00:05:26.253Z,54.86
2022-07-30T00:07:54.368Z,54.73
2022-07-30T00:10:23.441Z,55.18
2022-07-30T00:12:51.862Z,55.11
2022-07-30T00:15:20.071Z,55.33
2022-07-30T00:17:49.318Z,55.23
2022-07-30T00:20:18.624Z,55.68
2022-07-30T00:22:48.401Z,55.93
2022-07-30T00:25:19.147Z,56.37
2022-07-30T00:27:47.603Z,56.14
2022-07-30T00:30:16.591Z,56.09
2022-07-30T00:32:45.644Z,55.97
2022-07-30T00:35:14.471Z,56.45
2022-07-30T00:37:42.694Z,57.02
2022-07-30T00:40:12.611Z,56.80
2022-07-30T00:42:42.640Z,56.86
2022-07-30T00:45:12.462Z,57.17
2022-07-30T00:47:41.261Z,57.45
2022-07-30T00:50:12.154Z,57.11
2022-07-30T00:52:41.175Z,56.88
2022-07-30T00:55:14.138Z,57.17
2022-07-30T00:57:43.932Z,57.19
2022-07-30T01:00:16.103Z,57.31
2022-07-30T01:02:44.952Z,57.78
2022-07-30T01:05:13.405Z,57.94
2022-07-30T01:07:41.763Z,58.43
2022-07-30T01:10:14.026Z,58.56
2022-07-30T01:12:43.478Z,58.77
2022-07-30T01:15:12.874Z,58.96
2022-07-30T01:17:41.133Z,59.10
2022-07-30T01:20:12.651Z,59.41
2022-07-30T01:22:56.747Z,59.15
2022-07-30T01:25:54.540Z,59.55
2022-07-30T01:28:27.751Z,59.50
2022-07-30T01:30:57.615Z,59.31
2022-07-30T01:33:27.858Z,59.28
2022-07-30T01:35:58.751Z,59.45
2022-07-30T01:38:34.991Z,60.28
2022-07-30T01:41:06.480Z,60.44
2022-07-30T01:43:37.584Z,60.24
2022-07-30T01:46:07.274Z,59.69
2022-07-30T01:48:38.332Z,59.30
2022-07-30T01:51:07.933Z,58.48
2022-07-30T01:53:39.682Z,57.92
2022-07-30T01:56:11.500Z,57.27
2022-07-30T01:58:41.790Z,57.35
2022-07-30T02:01:10.107Z,58.20
2022-07-30T02:03:39.143Z,58.81
2022-07-30T02:06:12.376Z,59.04
2022-07-30T02:08:43.056Z,58.99
2022-07-30T02:11:16.561Z,58.52
2022-07-30T02:13:51.815Z,58.75
2022-07-30T02:16:28.736Z,58.71
2022-07-30T02:19:06.190Z,58.80
2022-07-30T02:21:40.060Z,59.29
2022-07-30T02:24:27.108Z,59.03
2022-07-30T02:27:00.984Z,59.53
2022-07-30T02:29:33.930Z,59.46
2022-07-30T02:32:06.246Z,59.46
2022-07-30T02:34:38.521Z,59.42
2022-07-30T02:37:08.674Z,59.76
2022-07-30T02:39:38.741Z,60.29
2022-07-30T02:42:11.218Z,61.26
2022-07-30T02:44:41.948Z,61.38
2022-07-30T02:47:11.993Z,61.58
2022-07-30T02:49:41.871Z,62.02
2022-07-30T02:52:13.716Z,62.38
2022-07-30T02:54:44.320Z,62.44
2022-07-30T02:57:16.186Z,62.78
2022-07-30T02:59:45.956Z,62.83
2022-07-30T03:02:16.303Z,62.22
2022-07-30T03:04:45.971Z,62.29
2022-07-30T03:07:18.390Z,62.84
2022-07-30T03:09:50.983Z,63.18
2022-07-30T03:12:24.670Z,63.44
2022-07-30T03:14:54.023Z,63.67
2022-07-30T03:17:25.200Z,63.16
2022-07-30T03:19:56.240Z,63.20
2022-07-30T03:22:30.056Z,63.13
2022-07-30T03:25:03.155Z,63.34
2022-07-30T03:27:33.974Z,63.10
2022-07-30T03:30:03.723Z,62.64
2022-07-30T03:32:33.748Z,63.03
2022-07-30T03:35:06.402Z,62.21
2022-07-30T03:37:38.352Z,61.57
2022-07-30T03:40:08.147Z,61.20
2022-07-30T03:42:38.296Z,60.57
2022-07-30T03:45:08.356Z,60.86
2022-07-30T03:47:42.804Z,61.45
2022-07-30T03:50:12.795Z,60.53
2022-07-30T03:52:42.561Z,59.56
2022-07-30T03:55:13.223Z,59.10
2022-07-30T03:57:43.002Z,58.76
2022-07-30T04:00:15.864Z,59.78
2022-07-30T04:02:44.784Z,59.13
2022-07-30T04:05:13.301Z,59.65
2022-07-30T04:07:45.268Z,59.15
2022-07-30T04:10:14.584Z,58.74
2022-07-30T04:12:44.695Z,58.94
2022-07-30T04:16:37.424Z,58.55
2022-07-30T04:18:06.112Z,58.87
2022-07-30T04:20:41.202Z,59.06
2022-07-30T04:23:11.483Z,58.66
2022-07-30T04:25:41.356Z,57.90
2022-07-30T04:28:11.852Z,56.81
2022-07-30T04:30:40.300Z,56.42
2022-07-30T04:33:09.921Z,55.23
2022-07-30T04:35:51.557Z,54.35
2022-07-30T04:38:21.017Z,54.26
2022-07-30T04:40:49.616Z,54.67
2022-07-30T04:43:19.161Z,54.41
2022-07-30T04:45:47.491Z,53.82
2022-07-30T04:48:15.728Z,53.79
2022-07-30T04:50:47.237Z,53.30
2022-07-30T04:53:16.898Z,52.95
2022-07-30T04:55:48.318Z,52.97
2022-07-30T04:58:21.307Z,53.14
2022-07-30T05:00:52.496Z,52.38
2022-07-30T05:03:22.801Z,51.78
2022-07-30T05:05:57.279Z,52.59
2022-07-30T05:08:27.273Z,51.80
2022-07-30T05:10:56.045Z,51.82
2022-07-30T05:13:27.524Z,51.06
2022-07-30T05:16:03.138Z,49.76
2022-07-30T05:18:31.307Z,49.73
2022-07-30T05:20:59.393Z,50.14
2022-07-30T05:23:27.564Z,51.33
2022-07-30T05:25:55.848Z,50.63
2022-07-30T05:28:26.771Z,49.95
2022-07-30T05:30:56.171Z,49.60
2022-07-30T05:33:40.857Z,49.15
2022-07-30T05:36:09.723Z,48.94
2022-07-30T05:38:37.856Z,48.47
2022-07-30T05:41:05.939Z,48.30
2022-07-30T05:43:57.003Z,49.47
2022-07-30T05:46:25.474Z,48.83
2022-07-30T05:48:53.634Z,48.53
2022-07-30T05:51:22.455Z,47.85
2022-07-30T05:53:51.452Z,47.67
2022-07-30T05:56:19.615Z,47.15
2022-07-30T05:58:48.114Z,47.22
2022-07-30T06:01:17.595Z,46.54
2022-07-30T06:03:45.819Z,47.20
2022-07-30T06:06:14.330Z,47.28
2022-07-30T06:08:44.614Z,47.58
2022-07-30T06:11:13.083Z,47.08
2022-07-30T06:13:41.256Z,46.98
2022-07-30T06:16:09.439Z,46.81
2022-07-30T06:18:38.987Z,46.40
2022-07-30T06:21:07.359Z,46.54
2022-07-30T06:23:35.475Z,47.06
2022-07-30T06:26:03.602Z,46.92
2022-07-30T06:28:39.645Z,46.65
2022-07-30T06:31:08.264Z,46.60
2022-07-30T06:33:36.294Z,45.73
2022-07-30T06:36:06.006Z,45.43
2022-07-30T06:38:34.645Z,45.03
2022-07-30T06:41:04.620Z,45.28
2022-07-30T06:43:32.877Z,44.00
2022-07-30T06:46:01.176Z,44.08
2022-07-30T06:48:32.288Z,44.25
2022-07-30T06:51:00.415Z,44.82
2022-07-30T06:53:30.074Z,45.73
2022-07-30T06:55:58.422Z,43.83
2022-07-30T06:58:29.360Z,44.41
2022-07-30T07:00:57.775Z,44.31
2022-07-30T07:03:40.164Z,43.54
2022-07-30T07:06:08.823Z,42.76
2022-07-30T07:08:39.385Z,42.96
2022-07-30T07:11:07.655Z,43.22
2022-07-30T07:13:35.724Z,42.69
2022-07-30T07:16:04.248Z,42.89
2022-07-30T07:18:45.536Z,42.69
2022-07-30T07:21:13.655Z,42.07
2022-07-30T07:23:42.509Z,43.64
2022-07-30T07:26:12.394Z,42.73
2022-07-30T07:28:41.413Z,43.21
2022-07-30T07:31:10.275Z,42.91
2022-07-30T07:33:39.566Z,42.03
2022-07-30T07:36:09.321Z,41.45
2022-07-30T07:38:37.944Z,41.31
2022-07-30T07:41:06.728Z,40.91
2022-07-30T07:43:35.218Z,41.10
2022-07-30T07:46:03.477Z,41.18
2022-07-30T07:48:31.660Z,40.91
2022-07-30T07:51:00.721Z,41.20
2022-07-30T07:53:30.467Z,40.03
2022-07-30T07:55:59.827Z,40.00
2022-07-30T07:58:29.499Z,40.82
2022-07-30T08:00:59.264Z,40.95
2022-07-30T08:03:27.435Z,41.51
2022-07-30T08:06:05.494Z,40.85
2022-07-30T08:08:37.294Z,41.37
2022-07-30T08:11:07.613Z,40.79
2022-07-30T08:13:51.520Z,40.58
2022-07-30T08:16:21.287Z,40.35
2022-07-30T08:18:49.691Z,39.66
2022-07-30T08:21:17.888Z,39.64
2022-07-30T08:23:48.021Z,38.95
2022-07-30T08:26:16.139Z,39.02
2022-07-30T08:28:45.846Z,38.54
2022-07-30T08:31:14.485Z,38.72
2022-07-30T08:33:42.605Z,39.68
2022-07-30T08:36:10.735Z,38.95
2022-07-30T08:38:39.907Z,38.33
2022-07-30T08:41:10.218Z,38.81
2022-07-30T08:43:38.647Z,38.92
2022-07-30T08:46:11.203Z,38.05
2022-07-30T08:48:40.452Z,37.00
2022-07-30T08:51:09.033Z,37.81
2022-07-30T08:53:37.354Z,36.97
2022-07-30T08:56:07.788Z,37.93
2022-07-30T08:58:38.399Z,38.24
2022-07-30T09:01:07.676Z,38.80
2022-07-30T09:03:44.070Z,36.25
2022-07-30T09:06:13.347Z,37.20
2022-07-30T09:08:42.225Z,35.87
2022-07-30T09:11:10.341Z,36.46
2022-07-30T09:13:41.825Z,36.74
2022-07-30T09:16:21.677Z,36.86
2022-07-30T09:18:50.574Z,34.73
2022-07-30T09:21:22.356Z,34.42
2022-07-30T09:23:58.035Z,31.68
2022-07-30T09:26:26.718Z,34.15
2022-07-30T09:28:57.120Z,33.12
2022-07-30T09:31:25.316Z,33.85
2022-07-30T09:33:53.470Z,34.51
2022-07-30T09:36:22.197Z,34.07
2022-07-30T09:38:51.992Z,34.32
2022-07-30T09:41:39.339Z,32.97
2022-07-30T09:44:09.609Z,33.36
2022-07-30T09:46:47.299Z,32.88
2022-07-30T09:49:17.085Z,32.13
2022-07-30T09:51:56.100Z,30.53
2022-07-30T09:54:50.721Z,30.51
2022-07-30T09:57:26.422Z,30.84
2022-07-30T09:59:59.988Z,31.28
2022-07-30T10:02:32.997Z,31.49
2022-07-30T10:05:14.324Z,31.67
2022-07-30T10:07:51.120Z,31.26
2022-07-30T10:10:25.670Z,30.77
2022-07-30T10:12:58.319Z,31.54
2022-07-30T10:15:30.941Z,32.65
2022-07-30T10:18:02.180Z,33.01
2022-07-30T10:20:35.373Z,33.12
2022-07-30T10:23:08.316Z,32.77
2022-07-30T10:25:49.496Z,33.20
2022-07-30T10:28:23.180Z,33.34
2022-07-30T10:30:55.363Z,32.82
2022-07-30T10:33:35.262Z,31.66
2022-07-30T10:36:06.374Z,30.08
2022-07-30T10:38:41.627Z,29.01
2022-07-30T10:41:22.121Z,29.38
2022-07-30T10:44:24.892Z,30.16
2022-07-30T10:47:07.173Z,30.91
2022-07-30T10:49:41.187Z,32.17
2022-07-30T10:52:12.736Z,30.78
2022-07-30T10:54:44.585Z,30.18
2022-07-30T10:57:22.636Z,30.37
2022-07-30T11:00:13.872Z,30.75
2022-07-30T11:03:18.216Z,29.81
2022-07-30T11:05:50.225Z,29.91
2022-07-30T11:08:35.862Z,30.13
2022-07-30T11:11:19.750Z,30.61
2022-07-30T11:13:53.603Z,31.34
2022-07-30T11:16:23.955Z,30.44
2022-07-30T11:19:55.865Z,29.97
2022-07-30T11:22:29.699Z,30.61
2022-07-30T11:24:59.435Z,30.85
2022-07-30T11:27:41.274Z,28.94
2022-07-30T11:30:35.986Z,29.58
2022-07-30T11:33:33.141Z,29.71
2022-07-30T11:36:11.929Z,28.49
2022-07-30T11:39:05.317Z,29.25
2022-07-30T11:41:35.559Z,28.99
2022-07-30T11:44:31.843Z,28.11
2022-07-30T11:47:00.467Z,27.93
2022-07-30T11:49:36.861Z,29.05
2022-07-30T11:52:07.399Z,28.15
2022-07-30T11:54:54.494Z,29.04
2022-07-30T11:57:40.271Z,29.28
2022-07-30T12:00:09.934Z,28.14
2022-07-30T12:02:38.171Z,27.01
2022-07-30T12:05:08.055Z,25.78
2022-07-30T12:07:37.835Z,26.51
2022-07-30T12:10:17.202Z,25.54
2022-07-30T12:13:07.900Z,24.70
2022-07-30T12:15:37.796Z,25.41
2022-07-30T12:18:24.555Z,24.24
2022-07-30T12:20:59.573Z,24.32
2022-07-30T12:23:30.029Z,24.34
2022-07-30T12:25:59.627Z,24.27
2022-07-30T12:28:31.215Z,24.57
2022-07-30T12:31:00.346Z,24.09
2022-07-30T12:33:28.537Z,24.19
2022-07-30T12:35:58.432Z,24.42
2022-07-30T12:38:29.038Z,24.29
2022-07-30T12:40:59.906Z,24.66
2022-07-30T12:43:49.049Z,24.36
2022-07-30T12:46:19.261Z,23.63
2022-07-30T12:48:51.996Z,23.74
2022-07-30T12:51:21.078Z,23.93
2022-07-30T12:53:51.175Z,24.43
2022-07-30T12:56:20.853Z,24.63
2022-07-30T12:58:48.980Z,24.07
2022-07-30T13:01:19.184Z,23.10
2022-07-30T13:03:48.332Z,23.45
2022-07-30T13:06:18.450Z,23.75
2022-07-30T13:08:49.193Z,24.22
2022-07-30T13:11:19.448Z,23.71
2022-07-30T13:13:47.666Z,24.09
2022-07-30T13:16:16.312Z,24.67
2022-07-30T13:18:44.667Z,24.01
2022-07-30T13:21:12.959Z,24.39
2022-07-30T13:23:42.262Z,23.44
2022-07-30T13:26:12.374Z,23.29
2022-07-30T13:28:42.070Z,23.01
2022-07-30T13:31:11.195Z,22.97
2022-07-30T13:33:40.325Z,22.80
2022-07-30T13:36:09.285Z,22.52
2022-07-30T13:38:37.812Z,23.40
2022-07-30T13:41:06.573Z,23.23
2022-07-30T13:43:34.810Z,22.60
2022-07-30T13:46:04.887Z,23.65
2022-07-30T13:48:33.713Z,23.79
2022-07-30T13:51:03.029Z,23.78
2022-07-30T13:53:31.397Z,24.06
2022-07-30T13:56:00.240Z,23.80
2022-07-30T13:58:31.808Z,24.52
2022-07-30T14:01:07.555Z,23.17
2022-07-30T14:03:35.904Z,23.61
2022-07-30T14:06:10.570Z,24.11
2022-07-30T14:08:39.404Z,22.90
2022-07-30T14:11:07.614Z,23.43
2022-07-30T14:13:35.769Z,23.04
2022-07-30T14:16:13.824Z,22.90
2022-07-30T14:18:51.082Z,22.92
2022-07-30T14:21:19.319Z,22.95
2022-07-30T14:23:47.954Z,22.83
2022-07-30T14:26:16.187Z,22.51
2022-07-30T14:28:44.532Z,22.95
2022-07-30T14:31:14.165Z,23.11
2022-07-30T14:33:42.247Z,23.29
2022-07-30T14:36:10.559Z,23.27
2022-07-30T14:38:39.960Z,22.91
2022-07-30T14:41:08.975Z,22.88
2022-07-30T14:43:37.169Z,23.13
2022-07-30T14:46:05.403Z,22.11
2022-07-30T14:48:34.907Z,23.23
2022-07-30T14:51:15.206Z,23.02
2022-07-30T14:53:47.231Z,23.15
2022-07-30T14:56:17.661Z,22.88
2022-07-30T14:58:46.150Z,23.81
2022-07-30T15:01:16.283Z,23.60
2022-07-30T15:03:46.870Z,24.03
2022-07-30T15:06:16.142Z,22.72
2022-07-30T15:08:46.384Z,23.25
2022-07-30T15:11:14.636Z,23.26
2022-07-30T15:13:50.124Z,23.91
2022-07-30T15:16:19.013Z,24.28
2022-07-30T15:18:49.133Z,24.17
2022-07-30T15:21:17.948Z,25.16
2022-07-30T15:23:46.325Z,25.30
2022-07-30T15:26:14.536Z,24.77
2022-07-30T15:28:42.694Z,25.13
2022-07-30T15:31:10.971Z,24.73
2022-07-30T15:33:42.983Z,25.14
2022-07-30T15:36:13.265Z,24.80
2022-07-30T15:38:41.477Z,24.78
2022-07-30T15:41:13.444Z,25.31
2022-07-30T15:43:42.035Z,24.99
2022-07-30T15:46:10.093Z,25.14
2022-07-30T15:48:38.541Z,24.80
2022-07-30T15:51:06.770Z,25.10
2022-07-30T15:53:36.629Z,24.86
2022-07-30T15:56:05.228Z,25.18
2022-07-30T15:58:33.874Z,25.67
2022-07-30T16:01:02.596Z,25.46
2022-07-30T16:03:30.880Z,25.37
2022-07-30T16:05:59.204Z,25.43
2022-07-30T16:08:27.433Z,25.78
2022-07-30T16:10:57.189Z,25.78
2022-07-30T16:13:25.546Z,26.42
2022-07-30T16:15:53.673Z,25.58
2022-07-30T16:18:21.804Z,26.20
2022-07-30T16:20:51.120Z,26.08
2022-07-30T16:23:21.600Z,25.67
2022-07-30T16:25:50.046Z,26.45
2022-07-30T16:28:19.690Z,26.50
2022-07-30T16:30:50.880Z,27.21
2022-07-30T16:33:20.464Z,26.66
2022-07-30T16:35:51.022Z,26.82
2022-07-30T16:38:19.804Z,26.56
2022-07-30T16:40:48.081Z,27.00
2022-07-30T16:43:19.838Z,27.22
2022-07-30T16:45:50.525Z,27.12
2022-07-30T16:48:19.162Z,27.05
2022-07-30T16:50:47.592Z,27.82
2022-07-30T16:53:15.820Z,27.67
2022-07-30T16:55:44.615Z,28.04
2022-07-30T16:58:13.062Z,28.52
2022-07-30T17:00:41.634Z,28.81
2022-07-30T17:03:11.941Z,29.36
2022-07-30T17:05:48.244Z,29.44
2022-07-30T17:08:17.829Z,29.70
2022-07-30T17:10:46.189Z,29.69
2022-07-30T17:13:16.101Z,29.74
2022-07-30T17:15:46.777Z,29.74
2022-07-30T17:18:17.818Z,30.18
2022-07-30T17:20:46.815Z,30.33
2022-07-30T17:23:15.681Z,30.79
2022-07-30T17:25:43.978Z,30.96
2022-07-30T17:28:12.687Z,30.75
2022-07-30T17:30:41.290Z,31.24
2022-07-30T17:33:09.455Z,30.87
2022-07-30T17:35:39.065Z,31.02
2022-07-30T17:38:07.414Z,31.27
2022-07-30T17:40:35.664Z,31.78
2022-07-30T17:43:07.752Z,31.93
2022-07-30T17:45:37.547Z,31.72
2022-07-30T17:48:06.856Z,31.93
2022-07-30T17:50:36.347Z,32.24
2022-07-30T17:53:06.390Z,32.28
2022-07-30T17:55:35.629Z,32.38
2022-07-30T17:58:04.537Z,32.84
2022-07-30T18:00:34.817Z,32.62
2022-07-30T18:03:03.609Z,32.64
2022-07-30T18:05:31.886Z,32.84
2022-07-30T18:08:00.029Z,33.14
2022-07-30T18:10:29.631Z,33.33
2022-07-30T18:12:59.551Z,33.31
2022-07-30T18:15:48.819Z,33.62
2022-07-30T18:18:17.331Z,33.61
2022-07-30T18:20:48.094Z,34.10
2022-07-30T18:23:19.238Z,34.18
2022-07-30T18:25:51.294Z,34.07
2022-07-30T18:28:20.480Z,34.43
2022-07-30T18:30:49.070Z,34.62
2022-07-30T18:33:17.328Z,34.81
2022-07-30T18:35:45.992Z,34.92
2022-07-30T18:38:14.480Z,34.93
2022-07-30T18:40:42.573Z,35.11
2022-07-30T18:43:13.233Z,35.04
2022-07-30T18:45:41.432Z,34.91
2022-07-30T18:48:09.554Z,35.32
2022-07-30T18:50:37.757Z,35.18
2022-07-30T18:53:15.380Z,35.52
2022-07-30T18:55:44.186Z,35.56
2022-07-30T18:58:14.101Z,35.53
2022-07-30T19:00:44.398Z,35.66
2022-07-30T19:03:17.528Z,35.77
2022-07-30T19:05:49.855Z,35.89
2022-07-30T19:08:17.976Z,35.95
2022-07-30T19:10:46.166Z,35.81
2022-07-30T19:13:15.940Z,35.93
2022-07-30T19:15:44.303Z,36.02
2022-07-30T19:18:12.559Z,36.48
2022-07-30T19:20:40.751Z,36.42
2022-07-30T19:23:09.561Z,36.70
2022-07-30T19:25:39.936Z,36.94
2022-07-30T19:28:09.066Z,37.11
2022-07-30T19:30:38.580Z,36.89
2022-07-30T19:33:13.998Z,37.07
2022-07-30T19:35:43.444Z,37.28
2022-07-30T19:38:21.380Z,36.90
2022-07-30T19:40:50.512Z,37.42
2022-07-30T19:43:24.051Z,37.50
2022-07-30T19:45:54.056Z,37.65
2022-07-30T19:48:28.893Z,38.30
2022-07-30T19:51:00.895Z,38.11
2022-07-30T19:53:31.175Z,38.91
2022-07-30T19:56:08.180Z,38.62
2022-07-30T19:58:40.097Z,38.91
2022-07-30T20:01:12.308Z,38.66
2022-07-30T20:03:40.673Z,38.84
2022-07-30T20:06:14.710Z,39.16
2022-07-30T20:08:44.843Z,39.30
2022-07-30T20:11:21.064Z,39.18
2022-07-30T20:16:51.051Z,41.46
2022-07-30T20:19:20.166Z,41.81
2022-07-30T20:21:56.717Z,41.80
2022-07-30T20:24:25.694Z,41.98
2022-07-30T20:26:53.876Z,41.86
2022-07-30T20:29:22.007Z,41.41
2022-07-30T20:31:52.165Z,41.66
2022-07-30T20:34:25.984Z,41.84
2022-07-30T20:36:56.607Z,41.93
2022-07-30T20:39:25.312Z,42.44
2022-07-30T20:42:07.910Z,42.08
2022-07-30T20:44:38.015Z,42.51
2022-07-30T20:49:56.604Z,46.24
2022-07-30T20:52:24.785Z,46.43
2022-07-30T20:54:52.937Z,47.05
2022-07-30T20:57:57.258Z,48.25
2022-07-30T21:00:10.464Z,53.87
2022-07-30T21:02:42.076Z,58.67
2022-07-30T21:05:18.024Z,63.28
2022-07-30T21:07:52.898Z,69.83
2022-07-30T21:10:23.739Z,75.27
2022-07-30T21:13:03.033Z,81.75
2022-07-30T21:15:33.234Z,83.44
2022-07-30T21:18:03.892Z,86.25
2022-07-30T21:20:32.909Z,89.56
2022-07-30T21:23:10.148Z,89.40
2022-07-30T21:26:02.095Z,91.12
2022-07-30T21:28:28.492Z,92.37
2022-07-30T21:30:57.395Z,93.43
2022-07-30T21:33:31.707Z,94.46
2022-07-30T21:36:00.292Z,95.05
2022-07-30T21:38:28.774Z,97.45
2022-07-30T21:41:00.351Z,98.44
2022-07-30T21:43:30.556Z,100.00
2022-07-30T21:46:03.794Z,100.00
2022-07-30T21:48:36.107Z,100.00
2022-07-30T21:51:04.510Z,100.00
2022-07-30T21:53:46.049Z,100.00
2022-07-30T21:56:16.338Z,100.00
2022-07-30T21:58:46.038Z,100.00
2022-07-30T22:01:21.830Z,98.21
2022-07-30T22:04:04.502Z,98.03
2022-07-30T22:06:38.529Z,96.01
2022-07-30T22:09:18.974Z,93.54
2022-07-30T22:14:48.745Z,88.66
2022-07-30T22:17:23.670Z,86.94
2022-07-30T22:20:08.653Z,84.88
2022-07-30T22:22:40.182Z,84.38
2022-07-30T22:25:10.143Z,84.38
2022-07-30T22:27:40.163Z,83.40
2022-07-30T22:30:26.397Z,83.28
2022-07-30T22:32:54.661Z,82.87
2022-07-30T22:35:33.405Z,82.88
2022-07-30T22:38:02.963Z,82.77
2022-07-30T22:40:31.249Z,82.17
2022-07-30T22:42:59.714Z,81.86
2022-07-30T22:45:46.657Z,82.11
2022-07-30T22:48:20.709Z,82.62
2022-07-30T22:50:55.693Z,82.90
2022-07-30T22:54:02.947Z,83.59
2022-07-30T22:56:15.376Z,82.22
2022-07-30T22:58:44.893Z,79.62
2022-07-30T23:01:16.808Z,79.62
2022-07-30T23:03:45.216Z,79.48
2022-07-30T23:06:17.669Z,79.42
2022-07-30T23:08:48.808Z,79.54
2022-07-30T23:11:16.974Z,79.06
2022-07-30T23:12:19.584Z,43.60
2022-07-30T23:12:28.379Z,92.65
2022-07-30T23:13:45.117Z,79.77
2022-07-30T23:16:13.373Z,79.41
2022-07-30T23:18:41.555Z,78.80
2022-07-30T23:21:10.027Z,79.16
2022-07-30T23:23:40.147Z,79.08
2022-07-30T23:26:08.977Z,80.01
2022-07-30T23:28:37.826Z,79.35
2022-07-30T23:31:07.278Z,79.11
2022-07-30T23:33:35.391Z,79.47
2022-07-30T23:36:06.165Z,79.40
2022-07-30T23:38:34.529Z,78.77
2022-07-30T23:41:05.861Z,79.54
2022-07-30T23:43:34.020Z,81.95
2022-07-30T23:46:02.308Z,82.76
2022-07-30T23:48:31.721Z,83.25
2022-07-30T23:51:00.058Z,86.79
2022-07-30T23:53:28.275Z,88.83
2022-07-30T23:55:56.430Z,87.85
2022-07-30T23:58:26.248Z,87.54
